Terminal Aerodrome Forecast
Issued by NWS

Current Version | Previous Version | Graphics & Text | Print | Product List | Glossary On
Versions: 1 2 3 4 5 6 7 8 9 10 11 12 13 14 15 16 17 18 19 20 21
000
FTUS41 KPBZ 071044 AAB
TAFHLG
TAF AMD
KHLG 071044Z 0711/0806 26007KT P6SM BKN035
     FM071400 26008KT P6SM BKN045
     FM080100 24005KT P6SM BKN100=

USA.gov is the U.S. government's official web portal to all federal, state and local government web resources and services.